Time;durP1;ratioP1;P1;durP2;ratioP2;P2;SDS_P1;SDS_P2;PMS_P1;PMS_P2;Temp;Humidity;BMP_temperature;BMP_pressure;BME280_temperature;BME280_humidity;BME280_pressure;Samples;Min_cycle;Max_cycle;Signal;HPM_P1;HPM_P2
2023/05/08 00:00:22;;;;;;;1999.90;999.90;;;;;;;;;;6334022;22;20011;-78
2023/05/08 00:02:48;;;;;;;1999.90;999.90;;;;;;;;;;6333555;22;20451;-78
2023/05/08 00:05:14;;;;;;;1999.90;999.90;;;;;;;;;;6306346;22;20015;-78
2023/05/08 00:07:40;;;;;;;1999.90;999.90;;;;;;;;;;6335156;22;20019;-78
2023/05/08 00:10:08;;;;;;;1999.90;999.90;;;;;;;;;;6333774;22;20055;-78
2023/05/08 00:12:34;;;;;;;1999.90;999.90;;;;;;;;;;6306775;22;20336;-78
2023/05/08 00:15:00;;;;;;;1999.90;999.90;;;;;;;;;;6333397;22;20015;-78
2023/05/08 00:17:26;;;;;;;1999.90;999.90;;;;;;;;;;6334580;22;20011;-78
2023/05/08 00:19:53;;;;;;;1999.90;999.90;;;;;;;;;;6334997;22;20022;-77
2023/05/08 00:22:19;;;;;;;1999.90;999.90;;;;;;;;;;6334170;22;20049;-78
2023/05/08 00:24:45;;;;;;;1999.90;999.90;;;;;;;;;;6334803;22;20366;-78
2023/05/08 00:27:11;;;;;;;1999.90;999.90;;;;;;;;;;6333306;22;20011;-79
2023/05/08 00:29:39;;;;;;;1999.90;999.90;;;;;;;;;;6334019;22;20011;-78
2023/05/08 00:32:05;;;;;;;1999.90;999.90;;;;;;;;;;6333025;22;20007;-78
2023/05/08 00:34:31;;;;;;;1999.90;999.90;;;;;;;;;;6334464;22;20014;-78
2023/05/08 00:36:57;;;;;;;1999.90;999.90;;;;;;;;;;6334228;22;20011;-78
2023/05/08 00:39:23;;;;;;;1999.90;999.90;;;;;;;;;;6334313;22;20068;-78
2023/05/08 00:41:49;;;;;;;1999.90;999.90;;;;;;;;;;6334207;22;20010;-78
2023/05/08 00:44:15;;;;;;;1999.90;999.90;;;;;;;;;;6333377;22;20042;-78
2023/05/08 00:46:42;;;;;;;1999.90;999.90;;;;;;;;;;6333708;22;20018;-78
2023/05/08 00:49:11;;;;;;;1999.90;999.90;;;;;;;;;;6305904;22;20014;-77
2023/05/08 00:51:38;;;;;;;1999.90;999.90;;;;;;;;;;6335064;22;20301;-78
2023/05/08 00:54:04;;;;;;;1999.90;999.90;;;;;;;;;;6333763;22;20115;-77
2023/05/08 00:56:31;;;;;;;1999.90;999.90;;;;;;;;;;6334277;22;20089;-77
2023/05/08 00:58:57;;;;;;;1999.90;999.90;;;;;;;;;;6305772;22;20011;-78
2023/05/08 01:01:23;;;;;;;1999.90;999.90;;;;;;;;;;6334305;22;20017;-78
2023/05/08 01:03:50;;;;;;;1999.90;999.90;;;;;;;;;;6334744;22;20011;-77
2023/05/08 01:06:16;;;;;;;1999.90;999.90;;;;;;;;;;6305992;22;20073;-77
2023/05/08 01:08:43;;;;;;;1999.90;999.90;;;;;;;;;;6334828;22;20391;-77
2023/05/08 01:11:17;;;;;;;1999.90;999.90;;;;;;;;;;6332970;22;20015;-78
2023/05/08 01:13:52;;;;;;;1999.90;999.90;;;;;;;;;;6335473;22;20042;-78
2023/05/08 01:16:24;;;;;;;1999.90;999.90;;;;;;;;;;6334131;22;20019;-78
2023/05/08 01:18:59;;;;;;;1999.90;999.90;;;;;;;;;;6336670;22;20015;-78
2023/05/08 01:21:25;;;;;;;1999.90;999.90;;;;;;;;;;6336592;22;20336;-78
2023/05/08 01:24:10;;;;;;;1999.90;999.90;;;;;;;;;;6336727;22;20014;-78
2023/05/08 01:26:55;;;;;;;1999.90;999.90;;;;;;;;;;6307388;22;20029;-78
2023/05/08 01:29:39;;;;;;;1999.90;999.90;;;;;;;;;;6335728;22;20014;-78
2023/05/08 01:32:26;;;;;;;1999.90;999.90;;;;;;;;;;6334925;22;20094;-78
2023/05/08 01:35:10;;;;;;;1999.90;999.90;;;;;;;;;;6335853;22;20330;-78
2023/05/08 01:37:36;;;;;;;1999.90;999.90;;;;;;;;;;6308992;22;20011;-78
2023/05/08 01:40:24;;;;;;;1999.90;999.90;;;;;;;;;;6307416;22;20115;-78
2023/05/08 01:42:56;;;;;;;1999.90;999.90;;;;;;;;;;6335833;22;20010;-78
2023/05/08 01:45:25;;;;;;;1999.90;999.90;;;;;;;;;;6335290;22;20007;-78
2023/05/08 01:48:00;;;;;;;1999.90;999.90;;;;;;;;;;6303544;22;20019;-78
2023/05/08 01:50:30;;;;;;;1999.90;999.90;;;;;;;;;;6305323;22;20007;-78
2023/05/08 01:53:03;;;;;;;1999.90;999.90;;;;;;;;;;6304180;22;20017;-78
2023/05/08 01:55:31;;;;;;;1999.90;999.90;;;;;;;;;;6304253;22;20015;-78
2023/05/08 01:57:58;;;;;;;1999.90;999.90;;;;;;;;;;6301608;22;20024;-78
2023/05/08 02:00:25;;;;;;;1999.90;999.90;;;;;;;;;;6305247;22;20007;-78
2023/05/08 02:02:51;;;;;;;1999.90;999.90;;;;;;;;;;6305040;22;20007;-78
2023/05/08 02:05:18;;;;;;;1999.90;999.90;;;;;;;;;;6303245;22;20355;-78
2023/05/08 02:07:45;;;;;;;1999.90;999.90;;;;;;;;;;6305106;22;20012;-78
2023/05/08 02:10:12;;;;;;;1999.90;999.90;;;;;;;;;;6301646;22;20017;-78
2023/05/08 02:12:39;;;;;;;1999.90;999.90;;;;;;;;;;6304555;22;20462;-78
2023/05/08 02:15:07;;;;;;;1999.90;999.90;;;;;;;;;;6301469;22;20019;-78
2023/05/08 02:17:36;;;;;;;1999.90;999.90;;;;;;;;;;6303071;22;20046;-78
2023/05/08 02:20:03;;;;;;;1999.90;999.90;;;;;;;;;;6303800;22;20046;-78
2023/05/08 02:22:29;;;;;;;1999.90;999.90;;;;;;;;;;6304376;22;20023;-78
2023/05/08 02:24:56;;;;;;;1999.90;999.90;;;;;;;;;;6303259;22;20047;-78
2023/05/08 02:27:23;;;;;;;1999.90;999.90;;;;;;;;;;6304467;22;20014;-78
2023/05/08 02:29:50;;;;;;;1999.90;999.90;;;;;;;;;;6304158;22;20011;-78
2023/05/08 02:32:17;;;;;;;1999.90;999.90;;;;;;;;;;6303094;22;20015;-78
2023/05/08 02:34:43;;;;;;;1999.90;999.90;;;;;;;;;;6302276;22;20030;-78
2023/05/08 02:37:10;;;;;;;1999.90;999.90;;;;;;;;;;6302756;22;20019;-78
2023/05/08 02:39:37;;;;;;;1999.90;999.90;;;;;;;;;;6302762;22;20011;-78
2023/05/08 02:42:03;;;;;;;1999.90;999.90;;;;;;;;;;6303085;22;20388;-78
2023/05/08 02:44:29;;;;;;;1999.90;999.90;;;;;;;;;;6304095;22;20015;-78
2023/05/08 02:46:59;;;;;;;1999.90;999.90;;;;;;;;;;6318960;22;20025;-78
2023/05/08 02:49:31;;;;;;;1999.90;999.90;;;;;;;;;;6335255;22;20374;-78
2023/05/08 02:52:01;;;;;;;1999.90;999.90;;;;;;;;;;6334198;22;20305;-78
2023/05/08 02:54:36;;;;;;;1999.90;999.90;;;;;;;;;;6335282;22;20057;-78
2023/05/08 02:57:21;;;;;;;1999.90;999.90;;;;;;;;;;6334637;22;20010;-78
2023/05/08 02:59:59;;;;;;;1999.90;999.90;;;;;;;;;;6335723;22;20034;-78
2023/05/08 03:02:28;;;;;;;1999.90;999.90;;;;;;;;;;6334902;22;20034;-77
2023/05/08 03:04:59;;;;;;;1999.90;999.90;;;;;;;;;;6334327;22;20011;-79
2023/05/08 03:07:27;;;;;;;1999.90;999.90;;;;;;;;;;6334625;22;20011;-78
2023/05/08 03:10:02;;;;;;;1999.90;999.90;;;;;;;;;;6335254;22;20085;-78
2023/05/08 03:12:30;;;;;;;1999.90;999.90;;;;;;;;;;6307564;22;20026;-78
2023/05/08 03:14:59;;;;;;;1999.90;999.90;;;;;;;;;;6333815;22;20015;-78
2023/05/08 03:17:26;;;;;;;1999.90;999.90;;;;;;;;;;6334845;22;20453;-78
2023/05/08 03:19:54;;;;;;;1999.90;999.90;;;;;;;;;;6335195;22;20046;-78
2023/05/08 03:22:20;;;;;;;1999.90;999.90;;;;;;;;;;6334034;22;20015;-79
2023/05/08 03:24:48;;;;;;;1999.90;999.90;;;;;;;;;;6334374;22;20403;-77
2023/05/08 03:27:15;;;;;;;1999.90;999.90;;;;;;;;;;6334264;22;20015;-78
2023/05/08 03:29:41;;;;;;;1999.90;999.90;;;;;;;;;;6335089;22;20501;-78
2023/05/08 03:32:08;;;;;;;1999.90;999.90;;;;;;;;;;6333921;22;20069;-78
2023/05/08 03:34:35;;;;;;;1999.90;999.90;;;;;;;;;;6334006;22;20015;-78
2023/05/08 03:37:01;;;;;;;1999.90;999.90;;;;;;;;;;6305564;22;20026;-78
2023/05/08 03:39:27;;;;;;;1999.90;999.90;;;;;;;;;;6335404;22;20331;-78
2023/05/08 03:41:54;;;;;;;1999.90;999.90;;;;;;;;;;6334967;22;20086;-78
2023/05/08 03:44:21;;;;;;;1999.90;999.90;;;;;;;;;;6334565;22;20015;-78
2023/05/08 03:46:49;;;;;;;1999.90;999.90;;;;;;;;;;6334571;22;20030;-78
2023/05/08 03:49:16;;;;;;;1999.90;999.90;;;;;;;;;;6334029;22;20018;-78
2023/05/08 03:51:42;;;;;;;1999.90;999.90;;;;;;;;;;6334543;22;20023;-77
2023/05/08 03:54:08;;;;;;;1999.90;999.90;;;;;;;;;;6333635;22;20381;-77
2023/05/08 03:56:34;;;;;;;1999.90;999.90;;;;;;;;;;6334407;22;20086;-77
2023/05/08 03:59:12;;;;;;;1999.90;999.90;;;;;;;;;;6333996;22;20042;-78
2023/05/08 04:01:39;;;;;;;1999.90;999.90;;;;;;;;;;6334980;22;20026;-78
2023/05/08 04:04:16;;;;;;;1999.90;999.90;;;;;;;;;;6332853;22;20014;-77
2023/05/08 04:06:50;;;;;;;1999.90;999.90;;;;;;;;;;6307239;22;20015;-78
2023/05/08 04:09:16;;;;;;;1999.90;999.90;;;;;;;;;;6333522;22;20018;-78
2023/05/08 04:11:52;;;;;;;1999.90;999.90;;;;;;;;;;6334867;22;20041;-78
2023/05/08 04:14:19;;;;;;;1999.90;999.90;;;;;;;;;;6333324;22;20014;-78
2023/05/08 04:16:48;;;;;;;1999.90;999.90;;;;;;;;;;6332918;22;20014;-78
2023/05/08 04:19:17;;;;;;;1999.90;999.90;;;;;;;;;;6330728;22;20007;-78
2023/05/08 04:21:44;;;;;;;1999.90;999.90;;;;;;;;;;6334184;22;20037;-77
2023/05/08 04:24:12;;;;;;;1999.90;999.90;;;;;;;;;;6302105;22;20015;-78
2023/05/08 04:26:38;;;;;;;1999.90;999.90;;;;;;;;;;6306956;22;20088;-78
2023/05/08 04:29:05;;;;;;;1999.90;999.90;;;;;;;;;;6305800;22;20042;-77
2023/05/08 04:31:32;;;;;;;1999.90;999.90;;;;;;;;;;6334791;22;20007;-78
2023/05/08 04:33:59;;;;;;;1999.90;999.90;;;;;;;;;;6332199;22;20049;-78
2023/05/08 04:36:28;;;;;;;1999.90;999.90;;;;;;;;;;6334161;22;20085;-77
2023/05/08 04:38:54;;;;;;;1999.90;999.90;;;;;;;;;;6333516;22;20015;-78
2023/05/08 04:41:20;;;;;;;1999.90;999.90;;;;;;;;;;6334193;22;20014;-78
2023/05/08 04:43:46;;;;;;;1999.90;999.90;;;;;;;;;;6334108;22;20015;-78
2023/05/08 04:46:12;;;;;;;1999.90;999.90;;;;;;;;;;6332880;22;20019;-78
2023/05/08 04:48:38;;;;;;;1999.90;999.90;;;;;;;;;;6333787;22;20082;-78
2023/05/08 04:51:04;;;;;;;1999.90;999.90;;;;;;;;;;6332461;22;20014;-77
2023/05/08 04:53:30;;;;;;;1999.90;999.90;;;;;;;;;;6334536;22;20015;-77
2023/05/08 04:55:57;;;;;;;1999.90;999.90;;;;;;;;;;6306048;22;20068;-77
2023/05/08 04:58:23;;;;;;;1999.90;999.90;;;;;;;;;;6334595;22;20010;-77
2023/05/08 05:00:49;;;;;;;1999.90;999.90;;;;;;;;;;6333971;22;20014;-81
2023/05/08 05:03:15;;;;;;;1999.90;999.90;;;;;;;;;;6332025;22;20078;-78
2023/05/08 05:05:41;;;;;;;1999.90;999.90;;;;;;;;;;6280084;22;20094;-79
2023/05/08 05:08:07;;;;;;;1999.90;999.90;;;;;;;;;;6305724;22;20391;-79
2023/05/08 05:10:33;;;;;;;1999.90;999.90;;;;;;;;;;6304292;22;20042;-79
2023/05/08 05:12:59;;;;;;;1999.90;999.90;;;;;;;;;;6333418;22;20034;-80
2023/05/08 05:15:25;;;;;;;1999.90;999.90;;;;;;;;;;6306755;22;20046;-80
2023/05/08 05:17:51;;;;;;;1999.90;999.90;;;;;;;;;;6305555;22;20018;-79
2023/05/08 05:20:17;;;;;;;1999.90;999.90;;;;;;;;;;6332688;22;20011;-79
2023/05/08 05:22:43;;;;;;;1999.90;999.90;;;;;;;;;;6334211;22;20055;-80
2023/05/08 05:25:09;;;;;;;1999.90;999.90;;;;;;;;;;6305336;22;20385;-79
2023/05/08 05:27:36;;;;;;;1999.90;999.90;;;;;;;;;;6334582;22;20086;-80
2023/05/08 05:30:02;;;;;;;1999.90;999.90;;;;;;;;;;6333386;22;20336;-81
2023/05/08 05:32:28;;;;;;;1999.90;999.90;;;;;;;;;;6333436;22;20007;-78
2023/05/08 05:34:55;;;;;;;1999.90;999.90;;;;;;;;;;6305632;22;20023;-78
2023/05/08 05:37:21;;;;;;;1999.90;999.90;;;;;;;;;;6333672;22;20011;-78
2023/05/08 05:39:47;;;;;;;1999.90;999.90;;;;;;;;;;6306097;22;20019;-78
2023/05/08 05:42:14;;;;;;;1999.90;999.90;;;;;;;;;;6332859;22;20018;-80
2023/05/08 05:44:40;;;;;;;1999.90;999.90;;;;;;;;;;6333752;22;20015;-85
2023/05/08 05:47:08;;;;;;;1999.90;999.90;;;;;;;;;;6304918;22;20023;-83
2023/05/08 05:49:35;;;;;;;1999.90;999.90;;;;;;;;;;6305791;22;20027;-85
2023/05/08 05:52:01;;;;;;;1999.90;999.90;;;;;;;;;;6304318;22;20019;-84
2023/05/08 05:54:26;;;;;;;1999.90;999.90;;;;;;;;;;6305777;22;20056;-80
2023/05/08 05:56:53;;;;;;;1999.90;999.90;;;;;;;;;;6305322;22;20387;-77
2023/05/08 05:59:19;;;;;;;1999.90;999.90;;;;;;;;;;6305291;22;20324;-78
2023/05/08 06:01:45;;;;;;;1999.90;999.90;;;;;;;;;;6333294;22;20011;-78
2023/05/08 06:04:11;;;;;;;1999.90;999.90;;;;;;;;;;6332742;22;20014;-77
2023/05/08 06:06:37;;;;;;;1999.90;999.90;;;;;;;;;;6334991;22;20336;-77
2023/05/08 06:09:03;;;;;;;1999.90;999.90;;;;;;;;;;6333626;22;20403;-80
2023/05/08 06:11:30;;;;;;;1999.90;999.90;;;;;;;;;;6333504;22;20010;-78
2023/05/08 06:13:56;;;;;;;1999.90;999.90;;;;;;;;;;6332795;22;20007;-77
2023/05/08 06:16:23;;;;;;;1999.90;999.90;;;;;;;;;;6333744;22;20010;-77
2023/05/08 06:18:49;;;;;;;1999.90;999.90;;;;;;;;;;6333907;22;20335;-77
2023/05/08 06:21:15;;;;;;;1999.90;999.90;;;;;;;;;;6333220;22;20087;-77
2023/05/08 06:23:42;;;;;;;1999.90;999.90;;;;;;;;;;6307803;22;20064;-78
2023/05/08 06:26:08;;;;;;;1999.90;999.90;;;;;;;;;;6303920;22;20348;-77
2023/05/08 06:28:34;;;;;;;1999.90;999.90;;;;;;;;;;6334340;22;20011;-77
2023/05/08 06:31:00;;;;;;;1999.90;999.90;;;;;;;;;;6333036;22;20011;-77
2023/05/08 06:33:26;;;;;;;1999.90;999.90;;;;;;;;;;6335195;22;20067;-79
2023/05/08 06:35:52;;;;;;;1999.90;999.90;;;;;;;;;;6334353;22;20093;-80
2023/05/08 06:38:18;;;;;;;1999.90;999.90;;;;;;;;;;6333474;22;20387;-81
2023/05/08 06:40:44;;;;;;;1999.90;999.90;;;;;;;;;;6334599;22;20369;-78
2023/05/08 06:43:11;;;;;;;1999.90;999.90;;;;;;;;;;6333938;22;20471;-77
2023/05/08 06:45:37;;;;;;;1999.90;999.90;;;;;;;;;;6335126;22;20015;-78
2023/05/08 06:48:03;;;;;;;1999.90;999.90;;;;;;;;;;6335519;22;20019;-78
2023/05/08 06:50:30;;;;;;;1999.90;999.90;;;;;;;;;;6336391;22;20056;-78
2023/05/08 06:52:56;;;;;;;1999.90;999.90;;;;;;;;;;6307786;22;20086;-78
2023/05/08 06:55:22;;;;;;;1999.90;999.90;;;;;;;;;;6336473;22;20022;-78
2023/05/08 06:57:48;;;;;;;1999.90;999.90;;;;;;;;;;6336441;22;20332;-78
2023/05/08 07:00:14;;;;;;;1999.90;999.90;;;;;;;;;;6307250;22;20502;-78
2023/05/08 07:02:40;;;;;;;1999.90;999.90;;;;;;;;;;6308502;22;20010;-78
2023/05/08 07:05:06;;;;;;;1999.90;999.90;;;;;;;;;;6335768;22;20064;-78
2023/05/08 07:07:32;;;;;;;1999.90;999.90;;;;;;;;;;6308472;22;20324;-78
2023/05/08 07:09:58;;;;;;;1999.90;999.90;;;;;;;;;;6335688;22;20036;-78
2023/05/08 07:12:24;;;;;;;1999.90;999.90;;;;;;;;;;6335545;22;20006;-78
2023/05/08 07:14:50;;;;;;;1999.90;999.90;;;;;;;;;;6336363;22;20053;-78
2023/05/08 07:17:16;;;;;;;1999.90;999.90;;;;;;;;;;6335708;22;20483;-78
2023/05/08 07:19:42;;;;;;;1999.90;999.90;;;;;;;;;;6308735;22;20014;-78
2023/05/08 07:22:08;;;;;;;1999.90;999.90;;;;;;;;;;6335187;22;20014;-78
2023/05/08 07:24:34;;;;;;;1999.90;999.90;;;;;;;;;;6308271;22;20333;-78
2023/05/08 07:27:01;;;;;;;1999.90;999.90;;;;;;;;;;6334882;22;20010;-78
2023/05/08 07:29:27;;;;;;;1999.90;999.90;;;;;;;;;;6308358;22;20038;-78
2023/05/08 07:31:53;;;;;;;1999.90;999.90;;;;;;;;;;6308298;22;20026;-78
2023/05/08 07:34:19;;;;;;;1999.90;999.90;;;;;;;;;;6336252;22;20010;-78
2023/05/08 07:36:45;;;;;;;1999.90;999.90;;;;;;;;;;6308317;22;20014;-78
2023/05/08 07:39:11;;;;;;;1999.90;999.90;;;;;;;;;;6335479;22;20007;-78
2023/05/08 07:41:39;;;;;;;1999.90;999.90;;;;;;;;;;6335574;22;20085;-78
2023/05/08 07:44:05;;;;;;;1999.90;999.90;;;;;;;;;;6335315;22;20039;-78
2023/05/08 07:46:31;;;;;;;1999.90;999.90;;;;;;;;;;6307764;22;20072;-78
2023/05/08 07:48:57;;;;;;;1999.90;999.90;;;;;;;;;;6307609;22;20018;-78
2023/05/08 07:51:23;;;;;;;1999.90;999.90;;;;;;;;;;6308011;22;20021;-78
2023/05/08 07:53:50;;;;;;;1999.90;999.90;;;;;;;;;;6335748;22;20043;-78
2023/05/08 07:56:16;;;;;;;1999.90;999.90;;;;;;;;;;6334671;22;20015;-78
2023/05/08 07:58:44;;;;;;;1999.90;999.90;;;;;;;;;;6335898;22;20094;-78
2023/05/08 08:01:10;;;;;;;1999.90;999.90;;;;;;;;;;6335081;22;20063;-78
2023/05/08 08:03:36;;;;;;;1999.90;999.90;;;;;;;;;;6336146;22;20015;-78
2023/05/08 08:06:02;;;;;;;1999.90;999.90;;;;;;;;;;6306957;22;20022;-78
2023/05/08 08:08:28;;;;;;;1999.90;999.90;;;;;;;;;;6335906;22;20069;-78
2023/05/08 08:10:54;;;;;;;1999.90;999.90;;;;;;;;;;6306804;22;20014;-78
2023/05/08 08:13:20;;;;;;;1999.90;999.90;;;;;;;;;;6307914;22;20069;-78
2023/05/08 08:15:46;;;;;;;1999.90;999.90;;;;;;;;;;6335825;22;20010;-78
2023/05/08 08:18:13;;;;;;;1999.90;999.90;;;;;;;;;;6306980;22;20485;-78
2023/05/08 08:20:39;;;;;;;1999.90;999.90;;;;;;;;;;6307966;22;20429;-78
2023/05/08 08:23:05;;;;;;;1999.90;999.90;;;;;;;;;;6334878;22;20011;-77
2023/05/08 08:25:31;;;;;;;1999.90;999.90;;;;;;;;;;6307070;22;20019;-77
2023/05/08 08:27:57;;;;;;;1999.90;999.90;;;;;;;;;;6307070;22;20089;-77
2023/05/08 08:30:23;;;;;;;1999.90;999.90;;;;;;;;;;6308227;22;20060;-76
2023/05/08 08:32:49;;;;;;;1999.90;999.90;;;;;;;;;;6308179;22;20014;-77
2023/05/08 08:35:16;;;;;;;1999.90;999.90;;;;;;;;;;6307155;22;20018;-77
2023/05/08 08:37:42;;;;;;;1999.90;999.90;;;;;;;;;;6335724;22;20328;-77
2023/05/08 08:40:08;;;;;;;1999.90;999.90;;;;;;;;;;6306193;22;20034;-77
2023/05/08 08:42:34;;;;;;;1999.90;999.90;;;;;;;;;;6335521;22;20044;-77
2023/05/08 08:45:00;;;;;;;1999.90;999.90;;;;;;;;;;6307115;22;20042;-77
2023/05/08 08:47:28;;;;;;;1999.90;999.90;;;;;;;;;;6335151;22;20066;-77
2023/05/08 08:49:55;;;;;;;1999.90;999.90;;;;;;;;;;6307320;22;20011;-77
2023/05/08 08:52:36;;;;;;;1999.90;999.90;;;;;;;;;;6335607;22;20011;-77
2023/05/08 08:55:03;;;;;;;1999.90;999.90;;;;;;;;;;6334270;22;20018;-77
2023/05/08 08:57:32;;;;;;;1999.90;999.90;;;;;;;;;;6335591;22;20018;-77
2023/05/08 08:59:59;;;;;;;1999.90;999.90;;;;;;;;;;6334684;22;20060;-76
2023/05/08 09:02:25;;;;;;;1999.90;999.90;;;;;;;;;;6335506;22;20014;-77
2023/05/08 09:04:51;;;;;;;1999.90;999.90;;;;;;;;;;6307522;22;20044;-77
2023/05/08 09:07:18;;;;;;;1999.90;999.90;;;;;;;;;;6335237;22;20006;-77
2023/05/08 09:09:45;;;;;;;1999.90;999.90;;;;;;;;;;6334493;22;20424;-77
2023/05/08 09:12:13;;;;;;;1999.90;999.90;;;;;;;;;;6306814;22;20089;-77
2023/05/08 09:14:39;;;;;;;1999.90;999.90;;;;;;;;;;6335036;22;20432;-77
2023/05/08 09:17:05;;;;;;;1999.90;999.90;;;;;;;;;;6334922;22;20022;-77
2023/05/08 09:19:31;;;;;;;1999.90;999.90;;;;;;;;;;6307677;22;20085;-77
2023/05/08 09:22:00;;;;;;;1999.90;999.90;;;;;;;;;;6307152;22;20060;-77
2023/05/08 09:24:46;;;;;;;1999.90;999.90;;;;;;;;;;6306939;22;20044;-77
2023/05/08 09:27:22;;;;;;;1999.90;999.90;;;;;;;;;;6334232;22;20014;-77
2023/05/08 09:30:01;;;;;;;1999.90;999.90;;;;;;;;;;6335066;22;20046;-77
2023/05/08 09:32:28;;;;;;;1999.90;999.90;;;;;;;;;;6307394;22;20042;-77
2023/05/08 09:34:54;;;;;;;1999.90;999.90;;;;;;;;;;6335592;22;20332;-77
2023/05/08 09:37:20;;;;;;;1999.90;999.90;;;;;;;;;;6336843;22;20313;-77
2023/05/08 09:39:46;;;;;;;1999.90;999.90;;;;;;;;;;6337173;22;20017;-77
2023/05/08 09:42:13;;;;;;;1999.90;999.90;;;;;;;;;;6336576;22;20676;-77
2023/05/08 09:44:45;;;;;;;1999.90;999.90;;;;;;;;;;6336833;22;20057;-77
2023/05/08 09:47:12;;;;;;;1999.90;999.90;;;;;;;;;;6335815;22;20344;-77
2023/05/08 09:49:39;;;;;;;1999.90;999.90;;;;;;;;;;6336953;22;20019;-77
2023/05/08 09:52:06;;;;;;;1999.90;999.90;;;;;;;;;;6307982;22;20014;-77
2023/05/08 09:54:32;;;;;;;1999.90;999.90;;;;;;;;;;6337096;22;20018;-77
2023/05/08 09:56:58;;;;;;;1999.90;999.90;;;;;;;;;;6308912;22;20022;-77
2023/05/08 09:59:25;;;;;;;1999.90;999.90;;;;;;;;;;6309203;22;20021;-77
2023/05/08 10:01:52;;;;;;;1999.90;999.90;;;;;;;;;;6336962;22;20010;-77
2023/05/08 10:04:30;;;;;;;1999.90;999.90;;;;;;;;;;6336602;22;20010;-77
2023/05/08 10:06:59;;;;;;;1999.90;999.90;;;;;;;;;;6307580;22;20440;-77
2023/05/08 10:09:25;;;;;;;1999.90;999.90;;;;;;;;;;6336888;22;20011;-77
2023/05/08 10:11:52;;;;;;;1999.90;999.90;;;;;;;;;;6336920;22;20129;-77
2023/05/08 10:14:18;;;;;;;1999.90;999.90;;;;;;;;;;6336227;22;20011;-77
2023/05/08 10:16:47;;;;;;;1999.90;999.90;;;;;;;;;;6309006;22;20089;-77
2023/05/08 10:19:14;;;;;;;1999.90;999.90;;;;;;;;;;6336156;22;20343;-77
2023/05/08 10:21:43;;;;;;;1999.90;999.90;;;;;;;;;;6308280;22;20436;-77
2023/05/08 10:24:13;;;;;;;1999.90;999.90;;;;;;;;;;6335915;22;20082;-77
2023/05/08 10:26:41;;;;;;;1999.90;999.90;;;;;;;;;;6309086;22;20011;-77
2023/05/08 10:29:11;;;;;;;1999.90;999.90;;;;;;;;;;6308465;22;20019;-77
2023/05/08 10:31:42;;;;;;;1999.90;999.90;;;;;;;;;;6336735;22;20428;-77
2023/05/08 10:34:12;;;;;;;1999.90;999.90;;;;;;;;;;6308096;22;20018;-77
2023/05/08 10:36:39;;;;;;;1999.90;999.90;;;;;;;;;;6308160;22;20017;-77
2023/05/08 10:39:05;;;;;;;1999.90;999.90;;;;;;;;;;6335379;22;20234;-77
2023/05/08 10:41:31;;;;;;;1999.90;999.90;;;;;;;;;;6309258;22;20324;-77
2023/05/08 10:43:59;;;;;;;1999.90;999.90;;;;;;;;;;6281991;22;20014;-77
2023/05/08 10:46:40;;;;;;;1999.90;999.90;;;;;;;;;;6335490;22;20014;-77
2023/05/08 10:49:15;;;;;;;1999.90;999.90;;;;;;;;;;6308032;22;20090;-77
2023/05/08 10:51:59;;;;;;;1999.90;999.90;;;;;;;;;;6308089;22;20018;-77
2023/05/08 10:54:28;;;;;;;1999.90;999.90;;;;;;;;;;6282973;22;20136;-77
2023/05/08 10:57:06;;;;;;;1999.90;999.90;;;;;;;;;;6308067;22;20038;-77
2023/05/08 10:59:34;;;;;;;1999.90;999.90;;;;;;;;;;6336466;22;20015;-77
2023/05/08 11:02:08;;;;;;;1999.90;999.90;;;;;;;;;;6335519;22;20007;-77
2023/05/08 11:04:34;;;;;;;1999.90;999.90;;;;;;;;;;6335903;22;20011;-77
2023/05/08 11:07:00;;;;;;;1999.90;999.90;;;;;;;;;;6307882;22;20349;-77
2023/05/08 11:09:28;;;;;;;1999.90;999.90;;;;;;;;;;6336372;22;20015;-77
2023/05/08 11:11:59;;;;;;;1999.90;999.90;;;;;;;;;;6335900;22;20018;-77
2023/05/08 11:14:26;;;;;;;1999.90;999.90;;;;;;;;;;6308486;22;20015;-77
2023/05/08 11:16:55;;;;;;;1999.90;999.90;;;;;;;;;;6308514;22;20023;-77
2023/05/08 11:19:25;;;;;;;1999.90;999.90;;;;;;;;;;6335688;22;20003;-77
2023/05/08 11:22:10;;;;;;;1999.90;999.90;;;;;;;;;;6336145;22;20050;-77
2023/05/08 11:24:37;;;;;;;1999.90;999.90;;;;;;;;;;6336153;22;20014;-77
2023/05/08 11:27:03;;;;;;;1999.90;999.90;;;;;;;;;;6307711;22;20015;-77
2023/05/08 11:29:29;;;;;;;1999.90;999.90;;;;;;;;;;6308277;22;20015;-77
2023/05/08 11:31:55;;;;;;;1999.90;999.90;;;;;;;;;;6335418;22;20043;-77
2023/05/08 11:34:40;;;;;;;1999.90;999.90;;;;;;;;;;6307711;22;20420;-77
2023/05/08 11:37:10;;;;;;;1999.90;999.90;;;;;;;;;;6335215;22;20015;-77
2023/05/08 11:39:36;;;;;;;1999.90;999.90;;;;;;;;;;6308153;22;20019;-77
2023/05/08 11:42:21;;;;;;;1999.90;999.90;;;;;;;;;;6307475;22;20054;-77
2023/05/08 11:44:47;;;;;;;1999.90;999.90;;;;;;;;;;6336014;22;20010;-77
2023/05/08 11:47:18;;;;;;;1999.90;999.90;;;;;;;;;;6334751;22;20026;-77
2023/05/08 11:49:44;;;;;;;1999.90;999.90;;;;;;;;;;6335472;22;20011;-77
2023/05/08 11:52:10;;;;;;;1999.90;999.90;;;;;;;;;;6335175;22;20018;-77
2023/05/08 11:54:36;;;;;;;1999.90;999.90;;;;;;;;;;6336062;22;20049;-77
2023/05/08 11:57:02;;;;;;;1999.90;999.90;;;;;;;;;;6335329;22;20019;-78
2023/05/08 11:59:28;;;;;;;1999.90;999.90;;;;;;;;;;6336052;22;20014;-77
2023/05/08 12:01:54;;;;;;;1999.90;999.90;;;;;;;;;;6335252;22;20022;-78
2023/05/08 12:04:20;;;;;;;1999.90;999.90;;;;;;;;;;6307358;22;20024;-77
2023/05/08 12:06:47;;;;;;;1999.90;999.90;;;;;;;;;;6335939;22;20089;-78
2023/05/08 12:09:14;;;;;;;1999.90;999.90;;;;;;;;;;6334898;22;20630;-78
2023/05/08 12:11:42;;;;;;;1999.90;999.90;;;;;;;;;;6335878;22;20381;-77
2023/05/08 12:14:08;;;;;;;1999.90;999.90;;;;;;;;;;6307136;22;20068;-77
2023/05/08 12:16:36;;;;;;;1999.90;999.90;;;;;;;;;;6307741;22;20468;-77
2023/05/08 12:19:02;;;;;;;1999.90;999.90;;;;;;;;;;6334367;22;20015;-77
2023/05/08 12:21:28;;;;;;;1999.90;999.90;;;;;;;;;;6335771;22;20018;-77
2023/05/08 12:23:55;;;;;;;1999.90;999.90;;;;;;;;;;6334992;22;20059;-77
2023/05/08 12:26:21;;;;;;;1999.90;999.90;;;;;;;;;;6335589;22;20018;-77
2023/05/08 12:28:53;;;;;;;1999.90;999.90;;;;;;;;;;6335839;22;20007;-77
2023/05/08 12:31:19;;;;;;;1999.90;999.90;;;;;;;;;;6335814;22;20018;-77
2023/05/08 12:33:45;;;;;;;1999.90;999.90;;;;;;;;;;6335699;22;20331;-78
2023/05/08 12:36:11;;;;;;;1999.90;999.90;;;;;;;;;;6335018;22;20385;-77
2023/05/08 12:38:37;;;;;;;1999.90;999.90;;;;;;;;;;6307987;22;20044;-78
2023/05/08 12:41:05;;;;;;;1999.90;999.90;;;;;;;;;;6335004;22;20015;-77
2023/05/08 12:43:35;;;;;;;1999.90;999.90;;;;;;;;;;6307571;22;20024;-77
2023/05/08 12:46:02;;;;;;;1999.90;999.90;;;;;;;;;;6305936;22;20010;-77
2023/05/08 12:48:28;;;;;;;1999.90;999.90;;;;;;;;;;6335679;22;20365;-77
2023/05/08 12:51:00;;;;;;;1999.90;999.90;;;;;;;;;;6335046;22;20047;-78
2023/05/08 12:53:26;;;;;;;;;;;;;;;;;;6308113;22;20019;-77
2023/05/08 12:55:53;;;;;;;1999.90;999.90;;;;;;;;;;6307667;22;19955;-77
2023/05/08 12:58:23;;;;;;;1999.90;999.90;;;;;;;;;;6335675;22;20019;-77
2023/05/08 13:00:50;;;;;;;1999.90;999.90;;;;;;;;;;6334669;22;20447;-77
2023/05/08 13:03:27;;;;;;;1999.90;999.90;;;;;;;;;;6306978;22;20517;-77
2023/05/08 13:05:53;;;;;;;1999.90;999.90;;;;;;;;;;6335432;22;20011;-78
2023/05/08 13:08:20;;;;;;;1999.90;999.90;;;;;;;;;;6281806;22;20093;-77
2023/05/08 13:10:46;;;;;;;1999.90;999.90;;;;;;;;;;6309352;22;20014;-78
2023/05/08 13:13:16;;;;;;;1999.90;999.90;;;;;;;;;;6309086;22;20018;-77
2023/05/08 13:15:42;;;;;;;1999.90;999.90;;;;;;;;;;6337074;22;20019;-77
2023/05/08 13:18:08;;;;;;;1999.90;999.90;;;;;;;;;;6336499;22;20015;-78
2023/05/08 13:20:34;;;;;;;1999.90;999.90;;;;;;;;;;6337352;22;20044;-78
2023/05/08 13:23:01;;;;;;;1999.90;999.90;;;;;;;;;;6336787;22;20165;-78
2023/05/08 13:25:27;;;;;;;1999.90;999.90;;;;;;;;;;6337024;22;20021;-78
2023/05/08 13:27:53;;;;;;;1999.90;999.90;;;;;;;;;;6309436;22;20336;-78
2023/05/08 13:30:20;;;;;;;1999.90;999.90;;;;;;;;;;6308832;22;20064;-78
2023/05/08 13:32:47;;;;;;;1999.90;999.90;;;;;;;;;;6309385;22;20435;-78
2023/05/08 13:35:13;;;;;;;1999.90;999.90;;;;;;;;;;6336649;22;20907;-78
2023/05/08 13:37:39;;;;;;;1999.90;999.90;;;;;;;;;;6337241;22;20022;-78
2023/05/08 13:40:05;;;;;;;1999.90;999.90;;;;;;;;;;6308623;22;20010;-78
2023/05/08 13:42:31;;;;;;;1999.90;999.90;;;;;;;;;;6336785;22;20056;-77
2023/05/08 13:44:57;;;;;;;1999.90;999.90;;;;;;;;;;6335772;22;20019;-77